Time;durP1;ratioP1;P1;durP2;ratioP2;P2;SDS_P1;SDS_P2;PMS_P1;PMS_P2;Temp;Humidity;BMP_temperature;BMP_pressure;BME280_temperature;BME280_humidity;BME280_pressure;Samples;Min_cycle;Max_cycle;Signal;HPM_P1;HPM_P2
2021/03/10 00:00:40;;;;;;;19.57;10.00;;;;;;;7.44;100.00;98235.69;5053963;28;20200;-76
2021/03/10 00:03:07;;;;;;;21.43;10.67;;;;;;;7.16;100.00;98245.13;5037016;28;20227;-77
2021/03/10 00:05:34;;;;;;;19.53;9.37;;;;;;;7.46;100.00;98244.28;5032226;28;20206;-78
2021/03/10 00:08:01;;;;;;;18.93;10.23;;;;;;;7.34;100.00;98244.84;5032728;28;20216;-77
2021/03/10 00:10:28;;;;;;;21.07;10.80;;;;;;;7.54;100.00;98241.59;5039536;28;20649;-77
2021/03/10 00:12:55;;;;;;;21.73;11.27;;;;;;;7.56;100.00;98242.22;5044568;28;20258;-77
2021/03/10 00:15:22;;;;;;;20.20;10.53;;;;;;;7.49;100.00;98251.06;5027254;28;20250;-78
2021/03/10 00:17:48;;;;;;;21.50;10.30;;;;;;;7.46;100.00;98243.47;5032149;28;20221;-76
2021/03/10 00:20:17;;;;;;;21.40;11.07;;;;;;;7.63;100.00;98240.53;5040254;28;20641;-79
2021/03/10 00:22:45;;;;;;;23.73;11.70;;;;;;;7.42;100.00;98242.97;5041799;28;20286;-76
2021/03/10 00:25:13;;;;;;;23.53;12.10;;;;;;;7.56;100.00;98250.19;5048358;28;20287;-77
2021/03/10 00:27:40;;;;;;;22.60;11.07;;;;;;;7.60;100.00;98253.31;5049313;28;20349;-75
2021/03/10 00:30:09;;;;;;;20.90;10.80;;;;;;;7.72;100.00;98244.75;5032089;28;20699;-77
2021/03/10 00:32:36;;;;;;;23.60;11.87;;;;;;;7.33;100.00;98252.00;5039313;28;20224;-76
2021/03/10 00:35:04;;;;;;;23.10;11.50;;;;;;;7.73;100.00;98254.41;5038866;28;20206;-77
2021/03/10 00:37:31;;;;;;;24.27;12.00;;;;;;;7.43;100.00;98255.28;5039910;28;20311;-77
2021/03/10 00:39:58;;;;;;;24.07;11.87;;;;;;;7.27;100.00;98257.19;5038397;28;20208;-77
2021/03/10 00:42:25;;;;;;;24.90;12.13;;;;;;;7.40;100.00;98258.25;5034708;28;20207;-76
2021/03/10 00:44:52;;;;;;;25.17;12.50;;;;;;;7.29;100.00;98256.00;5034821;28;20234;-77
2021/03/10 00:47:19;;;;;;;24.93;12.77;;;;;;;7.32;100.00;98260.13;5049329;28;20204;-77
2021/03/10 00:49:46;;;;;;;31.27;13.37;;;;;;;7.05;100.00;98263.28;5039557;28;20262;-78
2021/03/10 00:52:13;;;;;;;27.13;13.67;;;;;;;6.77;100.00;98273.50;5034216;28;20214;-76
2021/03/10 00:54:41;;;;;;;31.03;14.30;;;;;;;6.68;100.00;98266.53;5030888;28;20570;-75
2021/03/10 00:57:09;;;;;;;29.00;13.07;;;;;;;7.06;100.00;98268.38;5031156;28;20203;-77
2021/03/10 00:59:36;;;;;;;30.90;15.00;;;;;;;7.07;100.00;98267.41;5041412;28;20304;-78
2021/03/10 01:02:03;;;;;;;33.77;14.67;;;;;;;6.84;100.00;98273.59;5031111;28;20205;-76
2021/03/10 01:04:31;;;;;;;32.27;14.50;;;;;;;6.63;100.00;98274.19;5040455;28;20201;-76
2021/03/10 01:06:58;;;;;;;32.67;14.80;;;;;;;6.74;100.00;98268.50;5032843;28;20211;-76
2021/03/10 01:09:24;;;;;;;31.73;14.23;;;;;;;7.01;100.00;98261.97;5035960;28;20226;-76
2021/03/10 01:11:51;;;;;;;27.83;14.23;;;;;;;7.04;100.00;98264.25;5029172;28;20205;-76
2021/03/10 01:14:19;;;;;;;32.73;14.40;;;;;;;7.01;100.00;98262.75;5040219;28;20273;-78
2021/03/10 01:16:46;;;;;;;26.70;13.17;;;;;;;7.14;100.00;98260.41;5040981;28;20692;-78
2021/03/10 01:19:13;;;;;;;30.57;14.17;;;;;;;7.28;100.00;98256.19;5041379;28;20733;-78
2021/03/10 01:21:39;;;;;;;28.17;14.77;;;;;;;6.99;100.00;98253.31;5034230;28;20206;-76
2021/03/10 01:24:07;;;;;;;27.60;13.50;;;;;;;6.73;100.00;98256.25;5043219;28;20204;-76
2021/03/10 01:26:34;;;;;;;31.23;13.97;;;;;;;7.10;100.00;98252.97;5046757;28;20279;-79
2021/03/10 01:29:01;;;;;;;31.27;14.60;;;;;;;7.29;100.00;98250.69;5042679;28;20705;-78
2021/03/10 01:31:29;;;;;;;31.37;13.87;;;;;;;7.28;100.00;98249.06;5048112;28;20430;-77
2021/03/10 01:33:56;;;;;;;33.17;15.23;;;;;;;7.41;100.00;98243.97;5034627;28;20229;-76
2021/03/10 01:36:22;;;;;;;31.87;13.97;;;;;;;7.13;100.00;98247.28;5040994;28;20211;-76
2021/03/10 01:38:49;;;;;;;32.17;14.87;;;;;;;7.32;100.00;98247.69;5037494;28;20225;-79
2021/03/10 01:41:16;;;;;;;31.27;14.93;;;;;;;7.31;100.00;98243.38;5033113;28;20217;-77
2021/03/10 01:43:43;;;;;;;30.67;14.37;;;;;;;7.28;100.00;98243.75;5032722;28;20203;-76
2021/03/10 01:46:10;;;;;;;29.77;14.67;;;;;;;6.97;100.00;98250.03;5039375;28;20342;-77
2021/03/10 01:48:38;;;;;;;32.73;14.73;;;;;;;7.09;100.00;98251.28;5051830;28;20223;-77
2021/03/10 01:51:06;;;;;;;30.53;14.93;;;;;;;7.02;100.00;98248.53;5037964;28;20200;-77
2021/03/10 01:53:33;;;;;;;35.33;15.20;;;;;;;6.77;100.00;98249.63;5041808;28;21050;-76
2021/03/10 01:56:02;;;;;;;31.40;14.87;;;;;;;6.67;100.00;98256.94;5040725;28;20274;-77
2021/03/10 01:58:29;;;;;;;29.10;14.57;;;;;;;6.50;100.00;98250.00;5052215;28;20232;-77
2021/03/10 02:00:56;;;;;;;29.70;14.33;;;;;;;6.56;100.00;98251.16;5048646;28;20269;-77
2021/03/10 02:03:23;;;;;;;33.00;15.60;;;;;;;6.47;100.00;98250.38;5060177;28;20263;-77
2021/03/10 02:05:51;;;;;;;34.50;15.40;;;;;;;6.40;100.00;98246.72;5041458;28;20222;-76
2021/03/10 02:08:44;;;;;;;29.93;15.10;;;;;;;6.39;100.00;98244.25;5033259;28;20232;-76
2021/03/10 02:11:23;;;;;;;29.13;14.13;;;;;;;6.32;100.00;98246.75;5040547;28;20212;-76
2021/03/10 02:13:59;;;;;;;29.40;14.70;;;;;;;6.29;100.00;98241.78;5041077;28;20203;-77
2021/03/10 02:16:33;;;;;;;37.63;15.67;;;;;;;6.33;100.00;98237.81;5038734;28;20211;-76
2021/03/10 02:19:04;;;;;;;32.60;15.73;;;;;;;6.41;100.00;98229.84;5055382;28;20218;-77
2021/03/10 02:21:47;;;;;;;35.20;15.57;;;;;;;6.32;100.00;98230.84;5042633;28;20678;-77
2021/03/10 02:24:34;;;;;;;35.13;15.80;;;;;;;6.32;100.00;98230.84;5039719;28;20198;-77
2021/03/10 02:27:39;;;;;;;36.30;15.97;;;;;;;6.59;100.00;98235.75;5046470;28;20199;-78
2021/03/10 02:30:08;;;;;;;38.40;16.73;;;;;;;6.69;100.00;98230.22;5026093;28;20706;-78
2021/03/10 02:32:36;;;;;;;33.93;16.23;;;;;;;6.80;100.00;98225.38;5042029;28;20571;-78
2021/03/10 02:35:05;;;;;;;38.17;15.97;;;;;;;6.84;100.00;98228.50;5047898;28;20203;-78
2021/03/10 02:37:33;;;;;;;35.20;16.93;;;;;;;6.77;100.00;98235.50;5049186;28;20724;-78
2021/03/10 02:40:00;;;;;;;38.43;17.00;;;;;;;6.65;100.00;98229.75;5053396;28;20207;-76
2021/03/10 02:42:28;;;;;;;40.97;17.23;;;;;;;6.66;100.00;98238.53;5033484;28;20225;-77
2021/03/10 02:44:56;;;;;;;35.67;16.53;;;;;;;6.65;100.00;98235.06;5047717;28;20201;-78
2021/03/10 02:47:24;;;;;;;33.97;15.17;;;;;;;6.66;100.00;98242.00;5051476;28;20293;-78
2021/03/10 02:49:52;;;;;;;37.40;16.50;;;;;;;6.74;100.00;98242.00;5043212;28;20513;-76
2021/03/10 02:52:19;;;;;;;35.47;16.83;;;;;;;6.85;100.00;98244.25;5044449;28;20199;-77
2021/03/10 02:54:46;;;;;;;32.37;15.00;;;;;;;6.89;100.00;98240.28;5042890;28;20695;-77
2021/03/10 02:57:13;;;;;;;35.93;15.87;;;;;;;6.89;100.00;98248.22;5036871;28;20216;-77
2021/03/10 02:59:41;;;;;;;36.27;15.90;;;;;;;6.86;100.00;98250.41;5042408;28;20199;-78
2021/03/10 03:02:09;;;;;;;33.47;16.70;;;;;;;6.84;100.00;98242.63;5041906;28;20215;-78
2021/03/10 03:04:35;;;;;;;34.87;15.77;;;;;;;6.95;100.00;98250.19;5043366;28;20200;-78
2021/03/10 03:07:02;;;;;;;33.87;16.50;;;;;;;7.07;100.00;98248.84;5049753;28;20276;-78
2021/03/10 03:09:30;;;;;;;34.43;15.93;;;;;;;7.08;100.00;98255.78;5046550;28;20228;-78
2021/03/10 03:11:57;;;;;;;38.57;17.17;;;;;;;6.84;100.00;98269.16;5041457;28;20200;-77
2021/03/10 03:14:25;;;;;;;38.50;16.87;;;;;;;7.00;100.00;98269.06;5047126;28;20314;-78
2021/03/10 03:16:52;;;;;;;32.77;15.57;;;;;;;7.13;100.00;98273.84;5041591;28;20232;-78
2021/03/10 03:19:19;;;;;;;32.73;15.60;;;;;;;7.17;100.00;98280.47;5035349;28;20224;-78
2021/03/10 03:21:46;;;;;;;37.80;15.90;;;;;;;6.90;100.00;98287.03;5039573;28;20284;-76
2021/03/10 03:24:14;;;;;;;33.50;16.03;;;;;;;7.13;100.00;98287.94;5047509;28;20220;-77
2021/03/10 03:26:41;;;;;;;34.50;16.67;;;;;;;7.25;100.00;98289.19;5041817;28;20218;-76
2021/03/10 03:29:08;;;;;;;32.87;14.63;;;;;;;6.79;100.00;98279.44;5034147;28;20259;-76
2021/03/10 03:31:36;;;;;;;35.13;16.07;;;;;;;6.76;100.00;98289.56;5040731;28;20571;-76
2021/03/10 03:34:03;;;;;;;36.83;17.17;;;;;;;6.73;100.00;98292.53;5042614;28;20220;-76
2021/03/10 03:36:32;;;;;;;35.13;16.13;;;;;;;6.69;100.00;98296.53;5046331;28;20203;-76
2021/03/10 03:39:01;;;;;;;36.97;16.50;;;;;;;6.83;100.00;98290.53;5047864;28;20227;-76
2021/03/10 03:41:28;;;;;;;35.53;15.77;;;;;;;6.97;100.00;98288.00;5034588;28;20215;-77
2021/03/10 03:43:55;;;;;;;35.57;16.37;;;;;;;6.70;100.00;98287.59;5031660;28;20218;-76
2021/03/10 03:46:22;;;;;;;37.57;17.03;;;;;;;6.83;100.00;98288.72;5033879;28;20212;-76
2021/03/10 03:48:49;;;;;;;38.20;17.13;;;;;;;6.84;100.00;98281.56;5044300;28;20310;-77
2021/03/10 03:51:25;;;;;;;35.33;16.10;;;;;;;6.67;100.00;98283.47;5039521;28;20290;-77
2021/03/10 03:53:59;;;;;;;38.93;16.50;;;;;;;6.67;100.00;98288.75;5035251;28;20213;-76
2021/03/10 03:56:27;;;;;;;35.83;17.77;;;;;;;6.58;100.00;98292.44;5042824;28;20203;-77
2021/03/10 03:58:54;;;;;;;35.67;17.07;;;;;;;6.51;100.00;98293.28;5037711;28;20233;-77
2021/03/10 04:01:21;;;;;;;34.67;17.47;;;;;;;6.54;100.00;98283.16;5049162;28;20210;-77
2021/03/10 04:03:48;;;;;;;36.33;16.63;;;;;;;6.80;100.00;98285.59;5034112;28;20756;-77
2021/03/10 04:06:15;;;;;;;34.67;16.67;;;;;;;6.74;100.00;98296.84;5040370;28;20213;-76
2021/03/10 04:08:42;;;;;;;35.47;17.10;;;;;;;6.82;100.00;98288.88;5047546;28;20597;-77
2021/03/10 04:11:11;;;;;;;38.67;18.40;;;;;;;6.73;100.00;98288.09;5034926;28;20210;-77
2021/03/10 04:13:38;;;;;;;36.40;17.17;;;;;;;6.83;100.00;98295.84;5039509;28;20714;-78
2021/03/10 04:16:06;;;;;;;40.43;17.60;;;;;;;6.83;100.00;98288.72;5033407;28;20203;-78
2021/03/10 04:18:32;;;;;;;37.60;17.50;;;;;;;6.68;100.00;98290.41;5033739;28;20225;-77
2021/03/10 04:20:59;;;;;;;38.43;17.40;;;;;;;6.48;100.00;98293.59;5039521;28;20206;-77
2021/03/10 04:23:26;;;;;;;38.07;16.50;;;;;;;6.53;100.00;98289.44;5038738;28;20198;-78
2021/03/10 04:25:53;;;;;;;36.27;16.90;;;;;;;6.46;100.00;98288.47;5024303;28;20289;-78
2021/03/10 04:28:21;;;;;;;40.27;17.60;;;;;;;6.53;100.00;98294.75;5040073;28;20237;-78
2021/03/10 04:30:48;;;;;;;40.70;18.00;;;;;;;6.58;100.00;98303.03;5030986;28;20196;-78
2021/03/10 04:33:14;;;;;;;35.97;17.03;;;;;;;6.61;100.00;98305.31;5036164;28;20236;-78
2021/03/10 04:35:41;;;;;;;37.40;17.27;;;;;;;6.57;100.00;98304.03;5045407;28;20562;-78
2021/03/10 04:38:08;;;;;;;35.40;16.47;;;;;;;6.49;100.00;98305.88;5038141;28;20309;-77
2021/03/10 04:40:35;;;;;;;37.03;18.20;;;;;;;6.50;100.00;98307.53;5043600;28;20600;-78
2021/03/10 04:43:02;;;;;;;35.93;17.37;;;;;;;6.44;100.00;98305.56;5036802;28;20203;-77
2021/03/10 04:45:29;;;;;;;42.63;18.67;;;;;;;6.27;100.00;98301.25;5033661;28;20203;-77
2021/03/10 04:47:56;;;;;;;37.23;17.63;;;;;;;6.41;100.00;98303.22;5043938;28;20576;-77
2021/03/10 04:50:23;;;;;;;36.60;17.03;;;;;;;6.40;100.00;98315.63;5036000;28;20212;-78
2021/03/10 04:52:50;;;;;;;35.60;17.40;;;;;;;6.26;100.00;98312.84;5040237;28;20203;-78
2021/03/10 04:55:17;;;;;;;41.40;17.90;;;;;;;6.21;100.00;98312.50;5040810;28;20214;-76
2021/03/10 04:57:43;;;;;;;40.17;18.50;;;;;;;6.06;100.00;98317.66;5044114;28;20307;-78
2021/03/10 05:00:11;;;;;;;38.00;18.00;;;;;;;6.07;100.00;98318.47;5037615;28;20285;-76
2021/03/10 05:02:39;;;;;;;41.80;17.87;;;;;;;6.13;100.00;98326.59;5040229;28;20563;-75
2021/03/10 05:05:07;;;;;;;40.13;18.43;;;;;;;6.51;100.00;98314.47;5032928;28;20230;-78
2021/03/10 05:07:34;;;;;;;42.33;18.50;;;;;;;6.65;100.00;98325.22;5037846;28;20228;-78
2021/03/10 05:10:01;;;;;;;39.70;17.93;;;;;;;6.70;100.00;98322.88;5041074;28;20385;-78
2021/03/10 05:12:30;;;;;;;37.47;17.90;;;;;;;6.73;100.00;98329.66;5039547;28;20547;-79
2021/03/10 05:14:57;;;;;;;37.80;17.60;;;;;;;6.54;100.00;98319.47;5041777;28;20260;-75
2021/03/10 05:17:25;;;;;;;42.10;18.20;;;;;;;6.67;100.00;98320.59;5034312;28;20204;-78
2021/03/10 05:19:53;;;;;;;42.60;18.67;;;;;;;6.78;100.00;98317.56;5041191;28;20300;-78
2021/03/10 05:22:20;;;;;;;39.27;17.50;;;;;;;6.88;100.00;98318.22;5040326;28;20202;-78
2021/03/10 05:24:47;;;;;;;43.77;18.17;;;;;;;6.94;100.00;98328.13;5046180;28;20256;-79
2021/03/10 05:27:14;;;;;;;45.67;19.27;;;;;;;6.90;100.00;98340.06;5041934;28;20236;-78
2021/03/10 05:29:41;;;;;;;42.23;18.07;;;;;;;6.71;100.00;98335.13;5047092;28;20193;-78
2021/03/10 05:32:08;;;;;;;36.53;17.67;;;;;;;6.92;100.00;98337.25;5033489;28;20206;-78
2021/03/10 05:34:34;;;;;;;39.27;20.13;;;;;;;6.80;100.00;98330.66;5037993;28;20592;-78
2021/03/10 05:37:02;;;;;;;44.43;19.40;;;;;;;6.93;100.00;98331.78;5043047;28;20211;-76
2021/03/10 05:39:29;;;;;;;43.27;18.87;;;;;;;6.86;100.00;98333.44;5049867;28;20314;-77
2021/03/10 05:41:57;;;;;;;40.83;18.07;;;;;;;6.97;100.00;98332.28;5041432;28;20213;-76
2021/03/10 05:44:24;;;;;;;38.37;17.63;;;;;;;6.82;100.00;98341.94;5036061;28;20211;-76
2021/03/10 05:46:52;;;;;;;39.77;18.40;;;;;;;7.09;100.00;98344.16;5042718;28;20202;-74
2021/03/10 05:49:18;;;;;;;37.40;17.53;;;;;;;6.90;100.00;98341.91;5041540;28;21733;-78
2021/03/10 05:51:45;;;;;;;37.87;17.33;;;;;;;7.07;100.00;98335.56;5047218;28;20255;-79
2021/03/10 05:54:14;;;;;;;45.17;19.30;;;;;;;6.81;100.00;98341.09;5066351;28;20219;-79
2021/03/10 05:56:43;;;;;;;39.03;17.93;;;;;;;6.94;100.00;98349.34;5069464;28;20286;-79
2021/03/10 05:59:10;;;;;;;39.07;17.87;;;;;;;7.13;100.00;98354.28;5036903;28;20240;-78
2021/03/10 06:01:37;;;;;;;37.90;16.87;;;;;;;7.25;100.00;98349.44;5043370;28;20267;-79
2021/03/10 06:04:06;;;;;;;35.97;16.60;;;;;;;7.22;100.00;98347.13;5031641;28;20404;-79
2021/03/10 06:06:37;;;;;;;38.90;18.20;;;;;;;7.13;100.00;98351.63;5012886;28;20210;-79
2021/03/10 06:09:15;;;;;;;38.27;17.50;;;;;;;7.26;100.00;98343.13;5007047;28;20657;-78
2021/03/10 06:11:54;;;;;;;44.13;18.77;;;;;;;7.22;100.00;98349.78;5012706;28;20294;-77
2021/03/10 06:14:21;;;;;;;37.17;18.07;;;;;;;7.41;100.00;98339.56;5013337;28;20224;-79
2021/03/10 06:16:48;;;;;;;39.80;18.87;;;;;;;7.18;100.00;98346.63;5002914;28;20251;-78
2021/03/10 06:19:15;;;;;;;35.10;16.90;;;;;;;7.36;100.00;98357.84;5012205;28;20702;-77
2021/03/10 06:21:51;;;;;;;37.17;17.47;;;;;;;7.36;100.00;98355.19;5014554;28;20215;-79
2021/03/10 06:24:19;;;;;;;36.97;17.57;;;;;;;7.58;100.00;98353.59;5007855;28;21695;-78
2021/03/10 06:26:54;;;;;;;35.60;18.37;;;;;;;7.49;100.00;98362.59;4998157;28;20341;-76
2021/03/10 06:29:21;;;;;;;35.37;16.80;;;;;;;7.47;100.00;98372.56;5008246;28;20665;-77
2021/03/10 06:31:48;;;;;;;34.10;17.03;;;;;;;7.53;100.00;98378.03;5005546;28;20232;-76
2021/03/10 06:34:16;;;;;;;33.50;17.10;;;;;;;7.51;100.00;98377.34;5005264;28;20230;-84
2021/03/10 06:36:48;;;;;;;34.03;15.73;;;;;;;7.57;100.00;98371.34;4993506;28;20200;-75
2021/03/10 06:39:24;;;;;;;33.40;16.53;;;;;;;7.66;100.00;98372.97;4998781;28;20229;-77
2021/03/10 06:41:51;;;;;;;33.03;15.07;;;;;;;7.59;100.00;98374.66;5001255;28;20216;-76
2021/03/10 06:44:20;;;;;;;33.20;16.33;;;;;;;7.59;100.00;98368.53;5007850;28;20202;-78
2021/03/10 06:46:54;;;;;;;33.47;15.90;;;;;;;7.66;100.00;98362.34;5007992;28;20206;-77
2021/03/10 06:49:22;;;;;;;36.87;15.93;;;;;;;7.61;100.00;98374.50;5013216;28;20239;-80
2021/03/10 06:51:54;;;;;;;30.03;15.17;;;;;;;7.63;100.00;98372.50;5023620;28;20209;-78
2021/03/10 06:54:21;;;;;;;32.43;14.90;;;;;;;7.58;100.00;98380.16;5012995;28;20225;-78
2021/03/10 06:57:00;;;;;;;38.37;16.27;;;;;;;7.79;100.00;98380.38;5005819;28;20635;-78
2021/03/10 06:59:27;;;;;;;31.37;15.87;;;;;;;7.84;100.00;98386.00;5009905;28;20811;-78
2021/03/10 07:01:54;;;;;;;34.00;15.07;;;;;;;7.72;100.00;98384.75;4991925;28;20282;-77
2021/03/10 07:04:21;;;;;;;33.13;15.50;;;;;;;8.10;100.00;98383.84;5002291;28;20206;-78
2021/03/10 07:06:49;;;;;;;34.17;16.03;;;;;;;7.93;100.00;98391.09;5000878;28;20228;-79
2021/03/10 07:09:17;;;;;;;35.90;16.23;;;;;;;8.01;100.00;98387.56;5005643;28;20300;-77
2021/03/10 07:11:45;;;;;;;33.37;15.43;;;;;;;7.88;100.00;98392.63;5011859;28;20219;-78
2021/03/10 07:14:13;;;;;;;33.27;15.50;;;;;;;7.95;100.00;98399.72;5014321;28;20228;-81
2021/03/10 07:16:41;;;;;;;32.13;15.67;;;;;;;8.03;100.00;98399.69;5024291;28;20285;-79
2021/03/10 07:19:09;;;;;;;34.83;16.33;;;;;;;8.20;100.00;98403.06;5014598;28;20297;-78
2021/03/10 07:21:41;;;;;;;35.17;16.37;;;;;;;8.35;100.00;98399.50;5014441;28;20221;-79
2021/03/10 07:24:15;;;;;;;35.87;15.67;;;;;;;8.48;100.00;98401.56;5019738;28;20236;-77
2021/03/10 07:26:43;;;;;;;31.47;16.00;;;;;;;8.45;100.00;98412.53;5004953;28;20204;-77
2021/03/10 07:29:10;;;;;;;33.73;15.20;;;;;;;8.54;100.00;98414.13;5006537;28;20233;-78
2021/03/10 07:31:38;;;;;;;29.70;14.30;;;;;;;8.58;100.00;98413.59;5002612;28;20214;-78
2021/03/10 07:34:05;;;;;;;34.53;15.13;;;;;;;8.77;99.95;98415.75;5006762;28;20827;-79
2021/03/10 07:36:36;;;;;;;32.57;17.13;;;;;;;8.81;98.67;98422.38;5005157;28;20206;-79
2021/03/10 07:39:05;;;;;;;34.90;16.43;;;;;;;8.81;99.67;98426.88;4998969;28;20251;-77
2021/03/10 07:41:37;;;;;;;30.10;15.30;;;;;;;8.99;97.31;98424.72;5004694;28;20735;-78
2021/03/10 07:44:15;;;;;;;34.50;15.73;;;;;;;9.03;97.39;98423.38;5007089;28;20277;-77
2021/03/10 07:46:43;;;;;;;33.27;16.33;;;;;;;8.86;98.22;98413.84;5002295;28;20196;-77
2021/03/10 07:49:19;;;;;;;35.90;16.00;;;;;;;8.75;97.53;98427.59;4998930;28;20324;-77
2021/03/10 07:51:45;;;;;;;27.63;14.30;;;;;;;8.95;97.30;98423.44;4991516;28;20256;-77
2021/03/10 07:54:23;;;;;;;34.50;15.37;;;;;;;8.90;97.85;98442.63;5001787;28;20231;-79
2021/03/10 07:56:50;;;;;;;33.97;16.30;;;;;;;8.78;99.27;98432.56;4998588;28;20213;-78
2021/03/10 07:59:19;;;;;;;29.23;14.97;;;;;;;8.90;98.17;98439.09;5000155;28;20238;-79
2021/03/10 08:01:47;;;;;;;27.43;14.13;;;;;;;8.79;97.88;98443.00;5000193;28;20196;-78
2021/03/10 08:04:15;;;;;;;32.53;15.43;;;;;;;8.96;96.29;98444.53;5001869;28;20232;-79
2021/03/10 08:06:43;;;;;;;30.37;14.87;;;;;;;8.96;95.78;98449.88;5004062;28;20211;-78
2021/03/10 08:09:10;;;;;;;30.40;15.57;;;;;;;8.66;98.64;98450.78;5003479;28;20251;-79
2021/03/10 08:11:43;;;;;;;31.87;15.33;;;;;;;8.94;96.32;98449.19;4994936;28;20243;-78
2021/03/10 08:14:10;;;;;;;32.83;16.13;;;;;;;9.08;95.04;98442.28;5005924;28;20234;-78
2021/03/10 08:16:47;;;;;;;35.37;15.80;;;;;;;9.43;91.88;98447.72;4998072;28;20237;-77
2021/03/10 08:19:19;;;;;;;31.60;14.63;;;;;;;9.41;92.81;98441.78;4999590;28;20250;-79
2021/03/10 08:21:56;;;;;;;27.53;14.77;;;;;;;9.76;89.91;98442.84;5004039;28;20284;-78
2021/03/10 08:24:24;;;;;;;29.80;15.87;;;;;;;9.73;88.91;98452.06;4997098;28;20641;-78
2021/03/10 08:26:52;;;;;;;32.10;15.37;;;;;;;9.86;89.60;98443.41;4995654;28;20649;-79
2021/03/10 08:29:20;;;;;;;32.90;14.87;;;;;;;9.88;88.89;98454.69;5002091;28;20565;-78
2021/03/10 08:31:51;;;;;;;32.87;15.30;;;6.10;1.00;;;9.72;89.27;98449.56;5004984;28;20209;-78
2021/03/10 08:34:31;;;;;;;32.77;15.07;;;6.10;1.00;;;9.97;87.67;98450.91;4999259;28;20297;-84
2021/03/10 08:36:59;;;;;;;29.03;14.63;;;6.10;1.00;;;9.83;88.60;98451.75;4991309;28;20206;-78
2021/03/10 08:39:26;;;;;;;32.17;14.77;;;6.10;1.00;;;10.19;86.86;98448.16;5002542;28;20230;-78
2021/03/10 08:41:55;;;;;;;29.67;15.10;;;6.30;1.00;;;10.19;87.67;98450.81;4996417;28;20208;-78
2021/03/10 08:44:24;;;;;;;30.30;13.93;;;6.40;1.00;;;10.09;86.39;98444.16;4988306;28;20672;-77
2021/03/10 08:46:53;;;;;;;29.07;14.47;;;6.50;1.00;;;10.32;85.90;98442.97;4994738;28;20210;-77
2021/03/10 08:49:26;;;;;;;27.43;14.20;;;6.60;1.00;;;10.63;83.02;98443.50;4997629;28;20887;-78
2021/03/10 08:52:05;;;;;;;29.17;15.33;;;6.80;1.00;;;9.93;86.39;98445.13;4992534;28;20194;-77
2021/03/10 08:54:32;;;;;;;31.97;14.83;;;6.80;1.00;;;10.18;88.01;98441.16;5008656;28;20224;-79
2021/03/10 08:56:59;;;;;;;27.50;13.43;;;;;;;10.75;83.56;98441.97;5000672;28;20200;-78
2021/03/10 08:59:35;;;;;;;31.50;13.83;;;6.90;1.00;;;10.79;83.31;98442.41;5004428;28;20266;-77
2021/03/10 09:02:04;;;;;;;29.93;14.33;;;7.20;1.00;;;11.01;80.97;98444.06;5004511;28;20192;-77
2021/03/10 09:04:31;;;;;;;30.37;15.13;;;7.30;1.00;;;11.21;78.93;98445.03;5002845;28;20266;-78
2021/03/10 09:06:59;;;;;;;29.20;13.83;;;;;;;10.95;78.17;98450.19;5015574;28;20291;-79
2021/03/10 09:09:26;;;;;;;27.13;14.07;;;;;;;11.64;75.46;98443.09;5008538;28;20219;-79
2021/03/10 09:11:54;;;;;;;26.27;13.07;;;;;;;11.62;73.33;98447.81;5009089;28;20273;-81
2021/03/10 09:14:21;;;;;;;24.53;12.40;;;;;;;11.36;75.45;98445.78;5001866;28;20240;-77
2021/03/10 09:16:53;;;;;;;26.80;13.60;;;;;;;10.90;76.91;98449.94;5001203;28;20279;-75
2021/03/10 09:19:35;;;;;;;27.07;13.53;;;;;;;11.48;74.20;98458.41;5006935;28;20232;-83
2021/03/10 09:22:13;;;;;;;27.53;13.67;;;;;;;11.98;69.92;98462.63;5002397;28;21583;-78
2021/03/10 09:24:57;;;;;;;30.17;13.63;;;8.30;1.00;;;11.71;71.43;98451.97;5006459;28;20652;-76
2021/03/10 09:27:26;;;;;;;23.97;12.20;;;8.20;1.00;;;11.40;74.11;98442.50;5005153;28;20667;-77
2021/03/10 09:29:56;;;;;;;24.60;12.67;;;8.00;1.00;;;11.85;69.76;98443.00;5008876;28;20722;-77
2021/03/10 09:32:23;;;;;;;24.63;12.70;;;8.10;1.00;;;11.96;69.61;98445.13;5007182;28;20671;-78
2021/03/10 09:34:53;;;;;;;21.50;11.83;;;8.30;1.00;;;12.53;64.20;98457.88;4996595;28;20316;-76
2021/03/10 09:37:25;;;;;;;21.97;11.53;;;8.40;99.90;;;12.57;60.34;98462.84;5002364;28;20295;-76
2021/03/10 09:39:54;;;;;;;22.93;11.07;;;8.60;1.00;;;11.97;62.66;98457.47;5005023;28;20287;-75
2021/03/10 09:42:21;;;;;;;26.47;11.03;;;8.80;1.00;;;12.26;60.21;98470.56;4996566;28;20672;-76
2021/03/10 09:44:51;;;;;;;21.70;11.30;;;8.80;1.00;;;11.61;68.35;98448.84;5010980;28;20201;-76
2021/03/10 09:47:21;;;;;;;20.77;11.70;;;8.40;1.00;;;11.32;64.97;98450.66;5008183;28;20276;-77
2021/03/10 09:49:54;;;;;;;23.43;10.67;;;8.30;1.00;;;11.24;62.42;98448.16;4998065;28;20721;-78
2021/03/10 09:52:38;;;;;;;17.43;9.00;;;8.10;1.00;;;11.01;60.50;98463.56;5003518;28;20665;-76
2021/03/10 09:55:10;;;;;;;21.30;9.87;;;7.90;1.00;;;11.10;59.86;98464.25;5003026;28;20224;-77
2021/03/10 09:57:36;;;;;;;25.60;9.50;;;7.80;1.00;;;10.90;61.38;98458.75;4999730;28;20228;-77
2021/03/10 10:00:18;;;;;;;20.40;10.13;;;7.50;1.00;;;10.87;62.76;98455.63;5013597;28;20231;-77
2021/03/10 10:02:46;;;;;;;19.37;10.10;;;7.40;1.00;;;11.25;60.49;98459.63;4993166;28;20284;-75
2021/03/10 10:05:22;;;;;;;22.83;10.83;;;7.40;1.00;;;11.30;60.33;98463.41;4995624;28;20213;-76
2021/03/10 10:07:49;;;;;;;19.13;10.13;;;7.60;1.00;;;10.70;64.54;98452.41;5004294;28;20716;-76
2021/03/10 10:10:17;;;;;;;22.37;10.47;;;7.50;1.00;;;11.13;64.26;98448.69;5009166;28;20291;-76
2021/03/10 10:12:45;;;;;;;20.17;10.80;;;7.70;1.00;;;11.66;62.64;98459.75;4999334;28;20209;-76
2021/03/10 10:15:19;;;;;;;24.43;10.83;;;7.80;1.00;;;11.14;63.21;98462.84;4996966;28;20233;-76
2021/03/10 10:17:47;;;;;;;19.20;9.23;;;7.90;1.00;;;11.37;60.56;98472.28;4992760;28;20230;-75
2021/03/10 10:20:17;;;;;;;22.27;11.13;;;8.00;1.00;;;11.81;59.96;98463.13;5008573;28;20619;-76
2021/03/10 10:22:45;;;;;;;22.30;10.10;;;8.20;1.00;;;12.32;56.59;98472.44;4996385;28;20204;-75
2021/03/10 10:25:13;;;;;;;17.53;9.40;;;8.40;1.00;;;11.82;57.06;98459.44;4999860;28;20240;-75
2021/03/10 10:27:40;;;;;;;17.30;8.73;;;8.40;1.00;;;12.02;56.83;98468.38;5005998;28;20219;-75
2021/03/10 10:30:09;;;;;;;18.70;9.97;;;8.30;1.00;;;11.69;57.30;98478.91;5006096;28;20206;-76
2021/03/10 10:32:35;;;;;;;13.93;7.53;;;8.40;1.00;;;10.66;55.61;98479.66;5001198;28;20284;-77
2021/03/10 10:35:02;;;;;;;15.27;7.83;;;8.10;1.00;;;11.09;54.60;98470.59;5002685;28;20638;-74
2021/03/10 10:37:29;;;;;;;19.50;7.57;;;8.10;1.00;;;11.71;52.68;98465.34;5005738;28;20288;-76
2021/03/10 10:39:56;;;;;;;13.53;7.57;;;8.20;1.00;;;11.93;51.38;98477.59;5005539;28;20204;-75
2021/03/10 10:42:22;;;;;;;18.90;7.40;;;8.30;1.00;;;11.79;51.02;98484.72;4993675;28;20223;-75
2021/03/10 10:44:49;;;;;;;8.40;4.63;;;8.40;1.00;;;11.73;46.58;98492.69;4994806;28;20233;-75
2021/03/10 10:47:15;;;;;;;9.77;4.67;;;8.40;1.00;;;12.13;44.48;98495.41;5009316;28;20210;-77
2021/03/10 10:49:42;;;;;;;9.47;4.63;;;8.50;1.00;;;11.76;46.83;98484.28;5006877;28;20203;-76
2021/03/10 10:52:08;;;;;;;9.03;4.00;;;8.70;1.00;;;11.77;43.89;98498.28;5005280;28;20208;-78
2021/03/10 10:54:36;;;;;;;7.37;4.03;;;8.80;1.00;;;12.27;41.96;98499.81;5005360;28;20595;-73
2021/03/10 10:57:02;;;;;;;7.80;3.90;;;8.90;1.00;;;12.38;42.48;98499.22;4997855;28;20560;-78
2021/03/10 10:59:29;;;;;;;9.10;4.03;;;9.00;1.00;;;12.59;41.38;98493.72;4995790;28;20242;-72
2021/03/10 11:01:55;;;;;;;7.43;3.07;;;9.10;1.00;;;12.76;40.97;98497.69;4999758;28;20674;-76
2021/03/10 11:04:22;;;;;;;8.20;3.73;;;9.10;1.00;;;12.21;41.18;98511.28;5007332;28;20571;-77
2021/03/10 11:06:48;;;;;;;5.90;3.07;;;8.90;1.00;;;12.21;40.27;98502.44;5003996;28;20287;-76
2021/03/10 11:09:15;;;;;;;6.60;3.60;;;8.80;1.00;;;12.02;41.31;98500.50;4992062;28;20239;-74
2021/03/10 11:11:42;;;;;;;5.37;3.00;;;8.70;1.00;;;11.82;42.15;98497.72;4998049;28;20663;-76